sensor_id;sensor_type;location;lat;lon;timestamp;pressure;altitude;pressure_sealevel;temperature;humidity
28665;BME280;15850;47.524;7.814;2022-10-16T00:00:45;97627.56;;;11.90;100.00
28665;BME280;15850;47.524;7.814;2022-10-16T00:03:11;97340.59;;;10.30;100.00
28665;BME280;15850;47.524;7.814;2022-10-16T00:05:41;97662.22;;;12.46;100.00
28665;BME280;15850;47.524;7.814;2022-10-16T00:08:07;97661.69;;;12.56;100.00
28665;BME280;15850;47.524;7.814;2022-10-16T00:10:33;97588.84;;;12.13;100.00
28665;BME280;15850;47.524;7.814;2022-10-16T00:12:59;97363.91;;;10.43;100.00
28665;BME280;15850;47.524;7.814;2022-10-16T00:15:24;97656.38;;;12.48;100.00
28665;BME280;15850;47.524;7.814;2022-10-16T00:17:51;97645.47;;;12.48;100.00
28665;BME280;15850;47.524;7.814;2022-10-16T00:20:17;97685.38;;;12.52;100.00
28665;BME280;15850;47.524;7.814;2022-10-16T00:22:42;97325.84;;;10.31;100.00
28665;BME280;15850;47.524;7.814;2022-10-16T00:25:08;97626.72;;;12.30;100.00
28665;BME280;15850;47.524;7.814;2022-10-16T00:27:34;97403.06;;;10.95;100.00
28665;BME280;15850;47.524;7.814;2022-10-16T00:29:59;97667.59;;;12.58;100.00
28665;BME280;15850;47.524;7.814;2022-10-16T00:32:25;97674.72;;;12.63;100.00
28665;BME280;15850;47.524;7.814;2022-10-16T00:34:52;97552.63;;;11.84;100.00
28665;BME280;15850;47.524;7.814;2022-10-16T00:37:17;97599.75;;;12.13;100.00
28665;BME280;15850;47.524;7.814;2022-10-16T00:39:43;97486.13;;;11.45;100.00
28665;BME280;15850;47.524;7.814;2022-10-16T00:42:14;97663.72;;;12.59;100.00
28665;BME280;15850;47.524;7.814;2022-10-16T00:44:46;97661.94;;;12.51;100.00
28665;BME280;15850;47.524;7.814;2022-10-16T00:47:17;97684.50;;;12.64;100.00
28665;BME280;15850;47.524;7.814;2022-10-16T00:49:43;97682.28;;;12.54;100.00
28665;BME280;15850;47.524;7.814;2022-10-16T00:52:10;97502.69;;;11.24;100.00
28665;BME280;15850;47.524;7.814;2022-10-16T00:54:36;97677.34;;;12.43;100.00
28665;BME280;15850;47.524;7.814;2022-10-16T00:57:04;97631.25;;;12.10;100.00
28665;BME280;15850;47.524;7.814;2022-10-16T00:59:32;97689.63;;;12.37;100.00
28665;BME280;15850;47.524;7.814;2022-10-16T01:01:59;97687.69;;;12.38;100.00
28665;BME280;15850;47.524;7.814;2022-10-16T01:04:26;97695.41;;;12.20;100.00
28665;BME280;15850;47.524;7.814;2022-10-16T01:07:00;97713.75;;;12.07;100.00
28665;BME280;15850;47.524;7.814;2022-10-16T01:09:36;97683.72;;;12.19;100.00
28665;BME280;15850;47.524;7.814;2022-10-16T01:12:10;97687.41;;;12.27;100.00
28665;BME280;15850;47.524;7.814;2022-10-16T01:14:43;97641.88;;;11.99;100.00
28665;BME280;15850;47.524;7.814;2022-10-16T01:17:12;97687.19;;;12.32;100.00
28665;BME280;15850;47.524;7.814;2022-10-16T01:20:00;97693.56;;;12.24;100.00
28665;BME280;15850;47.524;7.814;2022-10-16T01:22:35;97691.19;;;12.22;100.00
28665;BME280;15850;47.524;7.814;2022-10-16T01:25:06;97688.72;;;12.17;100.00
28665;BME280;15850;47.524;7.814;2022-10-16T01:27:40;97215.34;;;8.97;100.00
28665;BME280;15850;47.524;7.814;2022-10-16T01:30:12;97714.41;;;12.16;100.00
28665;BME280;15850;47.524;7.814;2022-10-16T01:32:41;97719.50;;;12.18;100.00
28665;BME280;15850;47.524;7.814;2022-10-16T01:35:11;97714.31;;;12.13;100.00
28665;BME280;15850;47.524;7.814;2022-10-16T01:37:44;97695.59;;;12.27;100.00
28665;BME280;15850;47.524;7.814;2022-10-16T01:40:14;97480.78;;;10.80;100.00
28665;BME280;15850;47.524;7.814;2022-10-16T01:42:46;97695.69;;;12.03;100.00
28665;BME280;15850;47.524;7.814;2022-10-16T01:45:14;97650.38;;;11.45;100.00
28665;BME280;15850;47.524;7.814;2022-10-16T01:47:43;97352.38;;;9.85;100.00
28665;BME280;15850;47.524;7.814;2022-10-16T01:50:09;97577.88;;;11.28;100.00
28665;BME280;15850;47.524;7.814;2022-10-16T01:52:37;97694.16;;;11.89;100.00
28665;BME280;15850;47.524;7.814;2022-10-16T01:55:05;97575.31;;;11.08;100.00
28665;BME280;15850;47.524;7.814;2022-10-16T01:57:32;97621.44;;;11.41;100.00
28665;BME280;15850;47.524;7.814;2022-10-16T02:00:03;97691.88;;;11.79;100.00
28665;BME280;15850;47.524;7.814;2022-10-16T02:02:39;97592.13;;;11.10;100.00
28665;BME280;15850;47.524;7.814;2022-10-16T02:05:10;97592.34;;;11.04;100.00
28665;BME280;15850;47.524;7.814;2022-10-16T02:07:38;97447.06;;;10.07;100.00
28665;BME280;15850;47.524;7.814;2022-10-16T02:10:04;97074.44;;;7.72;100.00
28665;BME280;15850;47.524;7.814;2022-10-16T02:12:33;97663.44;;;11.40;100.00
28665;BME280;15850;47.524;7.814;2022-10-16T02:15:02;97689.28;;;11.58;100.00
28665;BME280;15850;47.524;7.814;2022-10-16T02:17:28;97521.75;;;10.47;100.00
28665;BME280;15850;47.524;7.814;2022-10-16T02:19:55;97699.88;;;11.60;100.00
28665;BME280;15850;47.524;7.814;2022-10-16T02:22:24;97392.44;;;9.76;100.00
28665;BME280;15850;47.524;7.814;2022-10-16T02:24:54;97611.28;;;11.13;100.00
28665;BME280;15850;47.524;7.814;2022-10-16T02:27:26;97679.91;;;11.56;100.00
28665;BME280;15850;47.524;7.814;2022-10-16T02:29:55;97692.47;;;11.60;100.00
28665;BME280;15850;47.524;7.814;2022-10-16T02:32:24;97631.81;;;11.23;100.00
28665;BME280;15850;47.524;7.814;2022-10-16T02:34:54;97659.69;;;11.44;100.00
28665;BME280;15850;47.524;7.814;2022-10-16T02:37:20;97696.09;;;11.52;100.00
28665;BME280;15850;47.524;7.814;2022-10-16T02:39:46;97688.06;;;11.56;100.00
28665;BME280;15850;47.524;7.814;2022-10-16T02:42:12;97683.72;;;11.67;100.00
28665;BME280;15850;47.524;7.814;2022-10-16T02:44:37;97708.84;;;11.48;100.00
28665;BME280;15850;47.524;7.814;2022-10-16T02:47:03;97735.50;;;11.67;100.00
28665;BME280;15850;47.524;7.814;2022-10-16T02:49:30;97705.41;;;11.63;100.00
28665;BME280;15850;47.524;7.814;2022-10-16T02:51:55;97549.75;;;10.47;100.00
28665;BME280;15850;47.524;7.814;2022-10-16T02:54:21;97708.94;;;11.64;100.00
28665;BME280;15850;47.524;7.814;2022-10-16T02:56:47;97409.84;;;9.62;100.00
28665;BME280;15850;47.524;7.814;2022-10-16T02:59:12;97723.25;;;11.61;100.00
28665;BME280;15850;47.524;7.814;2022-10-16T03:01:38;97724.81;;;11.74;100.00
28665;BME280;15850;47.524;7.814;2022-10-16T03:04:03;97426.88;;;9.96;100.00
28665;BME280;15850;47.524;7.814;2022-10-16T03:06:30;97723.91;;;11.82;100.00
28665;BME280;15850;47.524;7.814;2022-10-16T03:08:56;97724.16;;;11.89;100.00
28665;BME280;15850;47.524;7.814;2022-10-16T03:11:21;97724.16;;;11.89;100.00
28665;BME280;15850;47.524;7.814;2022-10-16T03:13:47;97710.63;;;11.68;100.00
28665;BME280;15850;47.524;7.814;2022-10-16T03:16:21;97715.50;;;11.87;100.00
28665;BME280;15850;47.524;7.814;2022-10-16T03:18:48;97716.41;;;11.91;100.00
28665;BME280;15850;47.524;7.814;2022-10-16T03:21:13;97718.31;;;12.03;100.00
28665;BME280;15850;47.524;7.814;2022-10-16T03:23:40;97618.59;;;11.49;100.00
28665;BME280;15850;47.524;7.814;2022-10-16T03:26:06;97712.25;;;12.10;100.00
28665;BME280;15850;47.524;7.814;2022-10-16T03:28:31;97710.81;;;12.00;100.00
28665;BME280;15850;47.524;7.814;2022-10-16T03:30:59;97693.38;;;11.89;100.00
28665;BME280;15850;47.524;7.814;2022-10-16T03:33:24;97649.22;;;11.59;100.00
28665;BME280;15850;47.524;7.814;2022-10-16T03:35:54;97718.09;;;11.96;100.00
28665;BME280;15850;47.524;7.814;2022-10-16T03:38:20;97713.63;;;12.04;100.00
28665;BME280;15850;47.524;7.814;2022-10-16T03:40:47;97717.84;;;12.01;100.00
28665;BME280;15850;47.524;7.814;2022-10-16T03:43:12;97661.34;;;11.61;100.00
28665;BME280;15850;47.524;7.814;2022-10-16T03:45:38;97665.56;;;11.59;100.00
28665;BME280;15850;47.524;7.814;2022-10-16T03:48:10;97719.22;;;11.95;100.00
28665;BME280;15850;47.524;7.814;2022-10-16T03:50:36;97720.38;;;11.94;100.00
28665;BME280;15850;47.524;7.814;2022-10-16T03:53:01;97720.03;;;11.95;100.00
28665;BME280;15850;47.524;7.814;2022-10-16T03:55:27;97698.91;;;11.80;100.00
28665;BME280;15850;47.524;7.814;2022-10-16T03:57:54;97162.38;;;8.20;100.00
28665;BME280;15850;47.524;7.814;2022-10-16T04:00:20;97413.53;;;10.03;100.00
28665;BME280;15850;47.524;7.814;2022-10-16T04:02:45;97032.91;;;7.47;100.00
28665;BME280;15850;47.524;7.814;2022-10-16T04:05:11;97109.09;;;7.79;100.00
28665;BME280;15850;47.524;7.814;2022-10-16T04:07:36;97306.03;;;9.20;100.00
28665;BME280;15850;47.524;7.814;2022-10-16T04:10:03;97356.22;;;9.47;100.00
28665;BME280;15850;47.524;7.814;2022-10-16T04:12:29;97716.75;;;11.90;100.00
28665;BME280;15850;47.524;7.814;2022-10-16T04:14:56;97744.88;;;11.82;100.00
28665;BME280;15850;47.524;7.814;2022-10-16T04:17:21;97611.06;;;11.06;100.00
28665;BME280;15850;47.524;7.814;2022-10-16T04:19:47;97699.53;;;11.49;100.00
28665;BME280;15850;47.524;7.814;2022-10-16T04:22:12;97532.84;;;10.42;100.00
28665;BME280;15850;47.524;7.814;2022-10-16T04:24:38;97729.22;;;11.79;100.00
28665;BME280;15850;47.524;7.814;2022-10-16T04:27:04;97702.81;;;11.55;100.00
28665;BME280;15850;47.524;7.814;2022-10-16T04:29:29;97715.94;;;11.77;100.00
28665;BME280;15850;47.524;7.814;2022-10-16T04:31:56;97718.78;;;11.81;100.00
28665;BME280;15850;47.524;7.814;2022-10-16T04:34:22;97643.81;;;11.34;100.00
28665;BME280;15850;47.524;7.814;2022-10-16T04:36:47;97236.91;;;8.81;100.00
28665;BME280;15850;47.524;7.814;2022-10-16T04:39:13;97708.91;;;11.88;100.00
28665;BME280;15850;47.524;7.814;2022-10-16T04:41:38;97701.97;;;11.91;100.00
28665;BME280;15850;47.524;7.814;2022-10-16T04:44:04;97629.31;;;11.30;100.00
28665;BME280;15850;47.524;7.814;2022-10-16T04:46:29;97706.06;;;11.85;100.00
28665;BME280;15850;47.524;7.814;2022-10-16T04:48:57;97659.13;;;11.51;100.00
28665;BME280;15850;47.524;7.814;2022-10-16T04:51:22;97540.19;;;10.66;100.00
28665;BME280;15850;47.524;7.814;2022-10-16T04:53:48;97511.53;;;10.44;100.00
28665;BME280;15850;47.524;7.814;2022-10-16T04:56:14;97425.19;;;9.92;100.00
28665;BME280;15850;47.524;7.814;2022-10-16T04:58:39;97479.44;;;10.00;100.00
28665;BME280;15850;47.524;7.814;2022-10-16T05:01:05;97513.13;;;10.32;100.00
28665;BME280;15850;47.524;7.814;2022-10-16T05:03:30;97365.78;;;9.32;100.00
28665;BME280;15850;47.524;7.814;2022-10-16T05:05:57;97169.06;;;8.23;100.00
28665;BME280;15850;47.524;7.814;2022-10-16T05:08:23;97496.13;;;10.35;100.00
28665;BME280;15850;47.524;7.814;2022-10-16T05:10:48;97314.53;;;9.18;100.00
28665;BME280;15850;47.524;7.814;2022-10-16T05:13:14;97093.13;;;7.65;100.00
28665;BME280;15850;47.524;7.814;2022-10-16T05:15:40;97495.09;;;10.28;100.00
28665;BME280;15850;47.524;7.814;2022-10-16T05:18:05;97665.16;;;11.32;100.00
28665;BME280;15850;47.524;7.814;2022-10-16T05:20:31;97544.41;;;10.39;100.00
28665;BME280;15850;47.524;7.814;2022-10-16T05:22:58;96922.28;;;6.58;100.00
28665;BME280;15850;47.524;7.814;2022-10-16T05:25:23;97185.38;;;8.14;100.00
28665;BME280;15850;47.524;7.814;2022-10-16T05:27:49;97704.53;;;11.59;100.00
28665;BME280;15850;47.524;7.814;2022-10-16T05:30:16;97345.44;;;9.38;100.00
28665;BME280;15850;47.524;7.814;2022-10-16T05:32:41;97378.72;;;9.60;100.00
28665;BME280;15850;47.524;7.814;2022-10-16T05:35:07;97728.44;;;11.78;100.00
28665;BME280;15850;47.524;7.814;2022-10-16T05:37:33;97718.59;;;11.61;100.00
28665;BME280;15850;47.524;7.814;2022-10-16T05:40:00;97516.19;;;10.43;100.00
28665;BME280;15850;47.524;7.814;2022-10-16T05:42:25;97714.13;;;11.93;100.00
28665;BME280;15850;47.524;7.814;2022-10-16T05:44:51;97569.81;;;10.67;100.00
28665;BME280;15850;47.524;7.814;2022-10-16T05:47:16;97289.41;;;9.09;100.00
28665;BME280;15850;47.524;7.814;2022-10-16T05:49:42;97747.44;;;11.87;100.00
28665;BME280;15850;47.524;7.814;2022-10-16T05:52:07;97758.66;;;11.85;100.00
28665;BME280;15850;47.524;7.814;2022-10-16T05:54:33;97148.72;;;7.63;100.00
28665;BME280;15850;47.524;7.814;2022-10-16T05:57:00;97739.59;;;11.61;100.00
28665;BME280;15850;47.524;7.814;2022-10-16T05:59:25;97519.81;;;10.35;100.00
28665;BME280;15850;47.524;7.814;2022-10-16T06:01:51;97652.22;;;11.04;100.00
28665;BME280;15850;47.524;7.814;2022-10-16T06:04:16;97681.38;;;11.28;100.00
28665;BME280;15850;47.524;7.814;2022-10-16T06:06:42;97703.28;;;11.32;100.00
28665;BME280;15850;47.524;7.814;2022-10-16T06:09:09;97345.44;;;8.93;100.00
28665;BME280;15850;47.524;7.814;2022-10-16T06:11:36;97761.72;;;11.71;100.00
28665;BME280;15850;47.524;7.814;2022-10-16T06:14:03;97779.88;;;11.55;100.00
28665;BME280;15850;47.524;7.814;2022-10-16T06:16:28;97185.81;;;7.83;100.00
28665;BME280;15850;47.524;7.814;2022-10-16T06:18:55;97774.44;;;11.80;100.00
28665;BME280;15850;47.524;7.814;2022-10-16T06:21:23;97220.16;;;8.12;100.00
28665;BME280;15850;47.524;7.814;2022-10-16T06:23:49;97780.81;;;11.96;100.00
28665;BME280;15850;47.524;7.814;2022-10-16T06:26:16;97662.41;;;11.32;100.00
28665;BME280;15850;47.524;7.814;2022-10-16T06:28:42;97507.41;;;10.13;100.00
28665;BME280;15850;47.524;7.814;2022-10-16T06:31:10;97644.53;;;11.07;100.00
28665;BME280;15850;47.524;7.814;2022-10-16T06:33:36;97730.94;;;11.59;100.00
28665;BME280;15850;47.524;7.814;2022-10-16T06:36:02;97793.81;;;12.27;100.00
28665;BME280;15850;47.524;7.814;2022-10-16T06:38:28;97801.06;;;12.35;100.00
28665;BME280;15850;47.524;7.814;2022-10-16T06:40:54;97786.06;;;12.29;100.00
28665;BME280;15850;47.524;7.814;2022-10-16T06:43:19;97735.00;;;12.02;100.00
28665;BME280;15850;47.524;7.814;2022-10-16T06:45:50;97562.84;;;11.07;100.00
28665;BME280;15850;47.524;7.814;2022-10-16T06:48:17;97824.47;;;12.64;100.00
28665;BME280;15850;47.524;7.814;2022-10-16T06:50:43;97645.84;;;11.49;100.00
28665;BME280;15850;47.524;7.814;2022-10-16T06:53:08;97538.47;;;10.98;100.00
28665;BME280;15850;47.524;7.814;2022-10-16T06:55:34;97822.19;;;12.94;100.00
28665;BME280;15850;47.524;7.814;2022-10-16T06:57:59;97442.41;;;10.57;100.00
28665;BME280;15850;47.524;7.814;2022-10-16T07:00:25;97820.34;;;13.27;100.00
28665;BME280;15850;47.524;7.814;2022-10-16T07:02:50;97797.03;;;13.17;100.00
28665;BME280;15850;47.524;7.814;2022-10-16T07:05:17;97522.13;;;11.38;100.00
28665;BME280;15850;47.524;7.814;2022-10-16T07:07:43;97832.97;;;13.63;100.00
28665;BME280;15850;47.524;7.814;2022-10-16T07:10:08;97839.03;;;13.88;100.00
28665;BME280;15850;47.524;7.814;2022-10-16T07:12:34;97735.09;;;13.37;100.00
28665;BME280;15850;47.524;7.814;2022-10-16T07:14:59;97838.03;;;14.12;100.00
28665;BME280;15850;47.524;7.814;2022-10-16T07:17:25;97817.84;;;14.01;100.00
28665;BME280;15850;47.524;7.814;2022-10-16T07:19:51;97842.19;;;14.41;100.00
28665;BME280;15850;47.524;7.814;2022-10-16T07:22:18;97843.75;;;14.42;100.00
28665;BME280;15850;47.524;7.814;2022-10-16T07:24:43;97779.72;;;14.27;100.00
28665;BME280;15850;47.524;7.814;2022-10-16T07:27:08;97845.06;;;14.84;100.00
28665;BME280;15850;47.524;7.814;2022-10-16T07:29:34;97796.69;;;14.72;100.00
28665;BME280;15850;47.524;7.814;2022-10-16T07:32:01;97723.13;;;14.31;100.00
28665;BME280;15850;47.524;7.814;2022-10-16T07:34:26;97858.28;;;15.20;100.00
28665;BME280;15850;47.524;7.814;2022-10-16T07:36:52;97759.78;;;14.66;100.00
28665;BME280;15850;47.524;7.814;2022-10-16T07:39:19;97852.94;;;15.27;100.00
28665;BME280;15850;47.524;7.814;2022-10-16T07:41:44;97852.88;;;15.24;100.00
28665;BME280;15850;47.524;7.814;2022-10-16T07:44:10;97857.91;;;15.22;100.00
28665;BME280;15850;47.524;7.814;2022-10-16T07:46:36;97856.84;;;15.26;100.00
28665;BME280;15850;47.524;7.814;2022-10-16T07:49:01;97857.19;;;15.25;100.00
28665;BME280;15850;47.524;7.814;2022-10-16T07:51:27;97855.53;;;15.20;100.00
28665;BME280;15850;47.524;7.814;2022-10-16T07:53:52;97857.66;;;15.08;100.00
28665;BME280;15850;47.524;7.814;2022-10-16T07:56:20;97818.53;;;14.88;100.00
28665;BME280;15850;47.524;7.814;2022-10-16T07:58:46;97860.59;;;15.18;100.00
28665;BME280;15850;47.524;7.814;2022-10-16T08:01:14;97872.53;;;15.30;100.00
28665;BME280;15850;47.524;7.814;2022-10-16T08:03:41;97879.75;;;15.38;100.00
28665;BME280;15850;47.524;7.814;2022-10-16T08:06:07;97852.94;;;15.50;100.00
28665;BME280;15850;47.524;7.814;2022-10-16T08:08:33;97800.59;;;15.13;100.00
28665;BME280;15850;47.524;7.814;2022-10-16T08:10:58;97868.28;;;15.55;100.00
28665;BME280;15850;47.524;7.814;2022-10-16T08:13:25;97851.59;;;15.64;100.00
28665;BME280;15850;47.524;7.814;2022-10-16T08:15:51;97887.63;;;15.85;100.00
28665;BME280;15850;47.524;7.814;2022-10-16T08:18:16;97893.06;;;16.05;100.00
28665;BME280;15850;47.524;7.814;2022-10-16T08:20:42;97896.22;;;16.07;100.00
28665;BME280;15850;47.524;7.814;2022-10-16T08:23:09;97893.22;;;16.15;100.00
28665;BME280;15850;47.524;7.814;2022-10-16T08:25:36;97902.97;;;16.36;100.00
28665;BME280;15850;47.524;7.814;2022-10-16T08:28:03;97857.94;;;15.91;100.00
28665;BME280;15850;47.524;7.814;2022-10-16T08:30:30;97827.81;;;15.68;100.00
28665;BME280;15850;47.524;7.814;2022-10-16T08:32:55;97883.22;;;16.27;100.00
28665;BME280;15850;47.524;7.814;2022-10-16T08:35:21;97842.91;;;16.08;100.00
28665;BME280;15850;47.524;7.814;2022-10-16T08:37:46;97557.88;;;14.17;100.00
28665;BME280;15850;47.524;7.814;2022-10-16T08:40:17;97526.44;;;14.07;100.00
28665;BME280;15850;47.524;7.814;2022-10-16T08:43:02;97873.31;;;16.49;100.00
28665;BME280;15850;47.524;7.814;2022-10-16T08:45:37;97801.91;;;15.92;100.00
28665;BME280;15850;47.524;7.814;2022-10-16T08:48:17;97895.00;;;16.84;100.00
28665;BME280;15850;47.524;7.814;2022-10-16T08:50:44;97890.19;;;17.07;100.00
28665;BME280;15850;47.524;7.814;2022-10-16T08:53:15;97898.22;;;17.23;100.00
28665;BME280;15850;47.524;7.814;2022-10-16T08:55:45;97889.59;;;17.62;100.00
28665;BME280;15850;47.524;7.814;2022-10-16T08:58:14;97899.88;;;17.69;100.00
28665;BME280;15850;47.524;7.814;2022-10-16T09:00:42;97903.69;;;17.57;100.00
28665;BME280;15850;47.524;7.814;2022-10-16T09:03:16;97810.91;;;16.76;100.00
28665;BME280;15850;47.524;7.814;2022-10-16T09:06:05;97878.25;;;17.30;100.00
28665;BME280;15850;47.524;7.814;2022-10-16T09:08:38;97887.34;;;17.00;100.00
28665;BME280;15850;47.524;7.814;2022-10-16T09:11:12;97867.06;;;16.78;100.00
28665;BME280;15850;47.524;7.814;2022-10-16T09:13:47;97907.19;;;17.17;100.00
28665;BME280;15850;47.524;7.814;2022-10-16T09:16:19;97910.16;;;17.38;100.00
28665;BME280;15850;47.524;7.814;2022-10-16T09:18:52;97909.16;;;17.53;100.00
28665;BME280;15850;47.524;7.814;2022-10-16T09:21:21;97862.78;;;17.52;100.00
28665;BME280;15850;47.524;7.814;2022-10-16T09:23:48;97753.72;;;16.88;100.00
28665;BME280;15850;47.524;7.814;2022-10-16T09:26:16;97908.75;;;17.92;100.00
28665;BME280;15850;47.524;7.814;2022-10-16T09:28:41;97833.59;;;17.44;100.00
28665;BME280;15850;47.524;7.814;2022-10-16T09:31:19;97910.06;;;18.05;100.00
28665;BME280;15850;47.524;7.814;2022-10-16T09:33:48;97894.69;;;18.04;100.00
28665;BME280;15850;47.524;7.814;2022-10-16T09:36:16;97900.66;;;18.10;100.00
28665;BME280;15850;47.524;7.814;2022-10-16T09:38:42;97906.53;;;18.08;100.00
28665;BME280;15850;47.524;7.814;2022-10-16T09:41:15;97916.03;;;18.15;100.00
28665;BME280;15850;47.524;7.814;2022-10-16T09:43:42;97920.66;;;18.03;100.00
28665;BME280;15850;47.524;7.814;2022-10-16T09:46:24;97914.34;;;18.03;100.00
28665;BME280;15850;47.524;7.814;2022-10-16T09:48:51;97803.13;;;17.19;100.00
28665;BME280;15850;47.524;7.814;2022-10-16T09:51:21;97856.41;;;17.44;100.00
28665;BME280;15850;47.524;7.814;2022-10-16T09:53:48;97901.00;;;17.64;100.00
28665;BME280;15850;47.524;7.814;2022-10-16T09:56:22;97912.59;;;17.80;100.00
28665;BME280;15850;47.524;7.814;2022-10-16T09:58:50;97832.34;;;17.34;100.00
28665;BME280;15850;47.524;7.814;2022-10-16T10:01:15;97765.00;;;16.76;100.00
28665;BME280;15850;47.524;7.814;2022-10-16T10:03:43;97914.63;;;17.91;100.00
28665;BME280;15850;47.524;7.814;2022-10-16T10:06:22;97834.00;;;17.42;100.00
28665;BME280;15850;47.524;7.814;2022-10-16T10:09:00;97888.25;;;17.86;100.00
28665;BME280;15850;47.524;7.814;2022-10-16T10:11:41;97913.19;;;18.07;100.00
28665;BME280;15850;47.524;7.814;2022-10-16T10:14:15;97903.41;;;18.10;100.00
28665;BME280;15850;47.524;7.814;2022-10-16T10:16:42;97839.97;;;17.92;100.00
28665;BME280;15850;47.524;7.814;2022-10-16T10:19:13;97861.78;;;18.19;100.00
28665;BME280;15850;47.524;7.814;2022-10-16T10:21:39;97910.88;;;18.65;100.00
28665;BME280;15850;47.524;7.814;2022-10-16T10:24:05;97704.06;;;17.59;100.00
28665;BME280;15850;47.524;7.814;2022-10-16T10:26:31;97820.16;;;18.31;100.00
28665;BME280;15850;47.524;7.814;2022-10-16T10:29:03;97907.94;;;19.09;100.00
28665;BME280;15850;47.524;7.814;2022-10-16T10:31:36;97705.91;;;18.00;100.00
28665;BME280;15850;47.524;7.814;2022-10-16T10:34:26;97916.78;;;19.58;100.00
28665;BME280;15850;47.524;7.814;2022-10-16T10:37:02;97867.44;;;19.31;100.00
28665;BME280;15850;47.524;7.814;2022-10-16T10:39:36;97911.63;;;19.60;100.00
28665;BME280;15850;47.524;7.814;2022-10-16T10:42:14;97880.91;;;19.51;100.00
28665;BME280;15850;47.524;7.814;2022-10-16T10:44:56;97861.94;;;19.31;100.00
28665;BME280;15850;47.524;7.814;2022-10-16T10:47:30;97896.31;;;19.66;100.00
28665;BME280;15850;47.524;7.814;2022-10-16T10:50:07;97758.63;;;19.04;100.00
28665;BME280;15850;47.524;7.814;2022-10-16T10:52:56;97899.09;;;20.12;100.00
28665;BME280;15850;47.524;7.814;2022-10-16T10:55:29;97847.81;;;20.08;100.00
28665;BME280;15850;47.524;7.814;2022-10-16T10:58:00;97893.97;;;20.54;100.00
28665;BME280;15850;47.524;7.814;2022-10-16T11:00:35;97889.56;;;20.74;100.00
28665;BME280;15850;47.524;7.814;2022-10-16T11:03:10;97886.38;;;20.72;100.00
28665;BME280;15850;47.524;7.814;2022-10-16T11:05:42;97893.06;;;20.93;100.00
28665;BME280;15850;47.524;7.814;2022-10-16T11:08:14;97764.56;;;20.02;100.00
28665;BME280;15850;47.524;7.814;2022-10-16T11:10:47;97889.00;;;21.15;100.00
28665;BME280;15850;47.524;7.814;2022-10-16T11:13:24;97887.81;;;21.16;100.00
28665;BME280;15850;47.524;7.814;2022-10-16T11:15:57;97767.59;;;20.54;100.00
28665;BME280;15850;47.524;7.814;2022-10-16T11:18:27;97882.25;;;21.23;100.00
28665;BME280;15850;47.524;7.814;2022-10-16T11:21:00;97777.44;;;20.70;100.00
28665;BME280;15850;47.524;7.814;2022-10-16T11:23:51;97883.38;;;21.33;100.00
28665;BME280;15850;47.524;7.814;2022-10-16T11:26:21;97880.88;;;21.60;100.00
28665;BME280;15850;47.524;7.814;2022-10-16T11:28:49;97878.81;;;21.71;100.00
28665;BME280;15850;47.524;7.814;2022-10-16T11:31:19;97870.56;;;21.64;99.34
28665;BME280;15850;47.524;7.814;2022-10-16T11:33:51;97871.34;;;21.65;100.00
28665;BME280;15850;47.524;7.814;2022-10-16T11:36:23;97870.41;;;21.89;100.00
28665;BME280;15850;47.524;7.814;2022-10-16T11:38:54;97827.91;;;21.58;100.00
28665;BME280;15850;47.524;7.814;2022-10-16T11:41:27;97850.22;;;21.85;100.00
28665;BME280;15850;47.524;7.814;2022-10-16T11:44:05;97841.31;;;21.63;100.00
28665;BME280;15850;47.524;7.814;2022-10-16T11:46:34;97793.38;;;21.14;100.00
28665;BME280;15850;47.524;7.814;2022-10-16T11:49:06;97765.84;;;20.93;100.00
28665;BME280;15850;47.524;7.814;2022-10-16T11:51:38;97843.84;;;21.40;100.00
28665;BME280;15850;47.524;7.814;2022-10-16T11:54:10;97846.28;;;21.23;100.00
28665;BME280;15850;47.524;7.814;2022-10-16T11:56:41;97541.91;;;19.42;100.00
28665;BME280;15850;47.524;7.814;2022-10-16T11:59:15;97845.41;;;21.41;100.00
28665;BME280;15850;47.524;7.814;2022-10-16T12:01:47;97838.16;;;21.61;100.00
28665;BME280;15850;47.524;7.814;2022-10-16T12:04:20;97844.91;;;21.60;100.00
28665;BME280;15850;47.524;7.814;2022-10-16T12:06:52;97824.41;;;21.50;100.00
28665;BME280;15850;47.524;7.814;2022-10-16T12:09:23;97829.84;;;21.61;100.00
28665;BME280;15850;47.524;7.814;2022-10-16T12:11:50;97689.09;;;21.07;93.57
28665;BME280;15850;47.524;7.814;2022-10-16T12:14:23;97813.38;;;21.92;94.99
28665;BME280;15850;47.524;7.814;2022-10-16T12:16:59;97852.50;;;21.97;100.00
28665;BME280;15850;47.524;7.814;2022-10-16T12:19:26;97710.47;;;21.03;97.26
28665;BME280;15850;47.524;7.814;2022-10-16T12:22:04;97843.53;;;21.83;98.20
28665;BME280;15850;47.524;7.814;2022-10-16T12:24:42;97848.69;;;21.80;98.86
28665;BME280;15850;47.524;7.814;2022-10-16T12:27:23;97846.75;;;21.77;100.00
28665;BME280;15850;47.524;7.814;2022-10-16T12:29:54;97847.34;;;21.99;100.00
28665;BME280;15850;47.524;7.814;2022-10-16T12:32:28;97797.78;;;21.67;99.13
28665;BME280;15850;47.524;7.814;2022-10-16T12:34:54;97837.75;;;22.11;94.37
28665;BME280;15850;47.524;7.814;2022-10-16T12:37:24;97837.78;;;22.08;94.55
28665;BME280;15850;47.524;7.814;2022-10-16T12:39:51;97815.84;;;21.83;96.46
28665;BME280;15850;47.524;7.814;2022-10-16T12:42:22;97835.50;;;21.99;98.46
28665;BME280;15850;47.524;7.814;2022-10-16T12:44:48;97828.41;;;21.94;96.36
28665;BME280;15850;47.524;7.814;2022-10-16T12:47:20;97811.88;;;21.84;94.36
28665;BME280;15850;47.524;7.814;2022-10-16T12:49:49;97834.88;;;21.77;100.00
28665;BME280;15850;47.524;7.814;2022-10-16T12:52:36;97799.03;;;21.59;100.00
28665;BME280;15850;47.524;7.814;2022-10-16T12:55:03;97812.56;;;21.95;91.66
28665;BME280;15850;47.524;7.814;2022-10-16T12:57:41;97781.88;;;21.75;88.38